Time;durP1;ratioP1;P1;durP2;ratioP2;P2;SDS_P1;SDS_P2;PMS_P1;PMS_P2;Temp;Humidity;BMP_temperature;BMP_pressure;BME280_temperature;BME280_humidity;BME280_pressure;Samples;Min_cycle;Max_cycle;Signal;HPM_P1;HPM_P2
2022/10/24 00:00:17;;;;;;;4.90;1.35;;;;;;;18.19;96.78;99629.91;5111589;28;20187;-62
2022/10/24 00:02:42;;;;;;;2.95;1.40;;;;;;;18.14;97.72;99623.97;5111753;28;20054;-62
2022/10/24 00:05:12;;;;;;;5.25;0.93;;;;;;;18.06;97.75;99620.97;5111990;28;20020;-62
2022/10/24 00:07:37;;;;;;;6.22;1.25;;;;;;;17.99;98.91;99625.03;5111777;28;20054;-61
2022/10/24 00:10:03;;;;;;;4.90;1.90;;;;;;;17.84;99.50;99604.56;5111890;28;20047;-62
2022/10/24 00:12:29;;;;;;;9.95;1.77;;;;;;;17.86;100.00;99617.91;5112518;28;20089;-62
2022/10/24 00:14:54;;;;;;;4.22;1.40;;;;;;;17.81;100.00;99618.22;5115967;28;20451;-62
2022/10/24 00:17:20;;;;;;;7.03;1.60;;;;;;;17.78;100.00;99620.25;5115474;28;20016;-61
2022/10/24 00:19:45;;;;;;;3.33;1.35;;;;;;;17.74;100.00;99611.53;5116184;28;20094;-62
2022/10/24 00:22:11;;;;;;;4.18;1.10;;;;;;;17.70;100.00;99612.72;5115675;28;20046;-62
2022/10/24 00:24:36;;;;;;;4.95;1.30;;;;;;;17.68;100.00;99609.28;5115971;28;20093;-62
2022/10/24 00:27:02;;;;;;;4.60;1.48;;;;;;;17.64;100.00;99609.59;5115443;28;20028;-61
2022/10/24 00:29:27;;;;;;;5.93;2.10;;;;;;;17.60;100.00;99598.19;5115601;28;20076;-61
2022/10/24 00:31:52;;;;;;;5.25;1.65;;;;;;;17.58;100.00;99608.16;5115435;28;20030;-61
2022/10/24 00:34:18;;;;;;;7.90;2.00;;;;;;;17.53;100.00;99613.00;5115387;28;20047;-61
2022/10/24 00:36:43;;;;;;;6.05;1.35;;;;;;;17.53;100.00;99613.00;5115209;28;20047;-61
2022/10/24 00:39:10;;;;;;;6.38;1.35;;;;;;;17.49;100.00;99614.19;5115319;28;20026;-61
2022/10/24 00:41:41;;;;;;;8.90;1.80;;;;;;;17.46;100.00;99630.50;5115312;28;20077;-61
2022/10/24 00:44:25;;;;;;;12.18;1.70;;;;;;;17.42;100.00;99618.19;5115212;28;20474;-61
2022/10/24 00:46:59;;;;;;;5.63;1.20;;;;;;;17.41;100.00;99624.56;5115273;28;20026;-62
2022/10/24 00:49:47;;;;;;;3.83;1.55;;;;;;;17.41;100.00;99627.25;5115340;28;20364;-62
2022/10/24 00:52:15;;;;;;;4.00;1.40;;;;;;;17.42;100.00;99620.88;5114791;28;20019;-62
2022/10/24 00:54:42;;;;;;;5.13;1.30;;;;;;;17.45;100.00;99626.09;5114262;28;20455;-63
2022/10/24 00:57:15;;;;;;;4.82;0.90;;;;;;;17.54;99.57;99616.56;5114119;28;20462;-63
2022/10/24 00:59:42;;;;;;;8.35;1.40;;;;;;;17.63;98.57;99605.16;5114377;28;20107;-63
2022/10/24 01:02:09;;;;;;;4.22;1.05;;;;;;;17.64;97.94;99602.41;5108913;28;20028;-61
2022/10/24 01:04:34;;;;;;;11.10;1.55;;;;;;;17.68;97.77;99603.00;5110172;28;20478;-61
2022/10/24 01:07:15;;;;;;;3.55;1.30;;;;;;;17.72;97.50;99609.94;5114334;28;20035;-60
2022/10/24 01:10:26;;;;;;;5.40;1.65;;;;;;;17.78;95.62;99599.59;5114750;28;20098;-61
2022/10/24 01:13:19;;;;;;;8.32;1.80;;;;;;;17.84;95.53;99604.56;5103906;28;20039;-60
2022/10/24 01:16:07;;;;;;;5.90;1.52;;;;;;;17.87;96.17;99599.00;5114790;28;20371;-61
2022/10/24 01:18:46;;;;;;;8.45;1.45;;;;;;;17.86;95.64;99602.63;5114366;28;20036;-60
2022/10/24 01:21:36;;;;;;;6.85;2.08;;;;;;;17.87;95.39;99590.06;5114343;28;20058;-60
2022/10/24 01:24:16;;;;;;;3.78;1.52;;;;;;;17.89;93.34;99586.28;5113987;28;20470;-61
2022/10/24 01:27:17;;;;;;;10.98;1.58;;;;;;;17.99;92.90;99571.22;5114401;28;20024;-61
2022/10/24 01:29:45;;;;;;;6.70;1.05;;;;;;;18.00;93.11;99572.94;5109480;28;20398;-61
2022/10/24 01:32:15;;;;;;;8.65;1.40;;;;;;;18.04;90.19;99574.44;5113959;28;20024;-60
2022/10/24 01:34:50;;;;;;;8.63;1.50;;;;;;;18.11;89.75;99580.25;5114282;28;20024;-61
2022/10/24 01:37:28;;;;;;;5.55;1.42;;;;;;;18.13;90.35;99579.19;5113982;28;20027;-61
2022/10/24 01:40:02;;;;;;;4.97;1.45;;;;;;;18.14;90.40;99580.03;5113306;28;20021;-61
2022/10/24 01:42:31;;;;;;;6.68;1.95;;;;;;;18.15;90.16;99582.63;5113706;28;20073;-60
2022/10/24 01:45:00;;;;;;;4.82;1.10;;;;;;;18.10;90.47;99582.06;5114031;28;20039;-60
2022/10/24 01:47:36;;;;;;;6.95;1.92;;;;;;;18.11;90.45;99583.81;5113761;28;20011;-61
2022/10/24 01:50:06;;;;;;;6.82;1.48;;;;;;;18.10;90.85;99587.47;5113416;28;20031;-61
2022/10/24 01:52:35;;;;;;;4.07;1.20;;;;;;;18.10;89.82;99584.78;5112833;28;20162;-61
2022/10/24 01:55:02;;;;;;;6.55;1.52;;;;;;;18.14;89.46;99578.22;5113272;28;20023;-61
2022/10/24 01:57:29;;;;;;;5.78;1.52;;;;;;;18.15;89.50;99577.22;5112889;28;20071;-61
2022/10/24 01:59:55;;;;;;;6.28;1.48;;;;;;;18.19;89.45;99583.28;5113112;28;20084;-61
2022/10/24 02:02:27;;;;;;;11.98;1.52;;;;;;;18.18;89.05;99577.03;5112808;28;20034;-61
2022/10/24 02:05:29;;;;;;;8.85;1.73;;;;;;;18.20;88.41;99572.38;5113088;28;20084;-60
2022/10/24 02:07:59;;;;;;;9.60;2.00;;;;;;;18.18;89.50;99581.56;5097843;28;20083;-61
2022/10/24 02:10:31;;;;;;;11.23;2.25;;;;;;;18.13;89.34;99578.31;5112228;28;20023;-61
2022/10/24 02:13:02;;;;;;;6.47;1.70;;;;;;;17.94;89.98;99542.91;5094855;28;20478;-61
2022/10/24 02:15:32;;;;;;;7.90;2.00;;;;;;;18.08;90.42;99570.59;5091917;28;20043;-60
2022/10/24 02:17:57;;;;;;;12.23;1.95;;;;;;;18.09;91.34;99566.03;5097382;28;20028;-61
2022/10/24 02:21:06;;;;;;;8.30;1.48;;;;;;;18.05;91.44;99570.81;5111968;28;20046;-60
2022/10/24 02:23:50;;;;;;;11.32;1.80;;;;;;;18.02;90.40;99571.00;5059397;28;20044;-60
2022/10/24 02:26:36;;;;;;;9.88;1.80;;;;;;;18.05;89.97;99570.81;5092826;28;20506;-60
2022/10/24 02:29:10;;;;;;;9.32;1.73;;;;;;;18.05;90.65;99562.72;5092717;28;20058;-60
2022/10/24 02:31:42;;;;;;;14.90;1.77;;;;;;;18.06;90.77;99555.50;5106305;28;20490;-60
2022/10/24 02:34:09;;;;;;;8.50;2.28;;;;;;;18.03;91.47;99543.13;5113007;28;20077;-61
2022/10/24 02:36:37;;;;;;;6.13;1.40;;;;;;;17.98;90.86;99537.19;5111770;28;20035;-61
2022/10/24 02:39:07;;;;;;;8.45;1.80;;;;;;;17.98;91.26;99542.59;5112707;28;20031;-61
2022/10/24 02:41:36;;;;;;;19.10;1.75;;;;;;;17.96;91.51;99549.91;5112999;28;20027;-61
2022/10/24 02:44:03;;;;;;;5.38;1.70;;;;;;;17.98;92.15;99553.34;5112742;28;20031;-60
2022/10/24 02:46:30;;;;;;;6.82;1.92;;;;;;;17.96;92.08;99552.59;5112853;28;20026;-60
2022/10/24 02:48:58;;;;;;;5.82;1.80;;;;;;;17.96;91.41;99544.53;5112330;28;20027;-61
2022/10/24 02:51:28;;;;;;;8.95;2.15;;;;;;;17.98;90.72;99542.59;5113042;28;20513;-60
2022/10/24 02:53:55;;;;;;;5.88;1.92;;;;;;;18.01;90.79;99550.44;5112569;28;20118;-61
2022/10/24 02:56:20;;;;;;;9.35;1.80;;;;;;;18.05;90.55;99548.41;5112144;28;20051;-60
2022/10/24 02:58:46;;;;;;;12.07;2.20;;;;;;;18.00;91.48;99555.94;5112295;28;20032;-61
2022/10/24 03:01:12;;;;;;;5.97;2.03;;;;;;;17.94;92.42;99559.91;5112541;28;20063;-61
2022/10/24 03:03:37;;;;;;;5.85;1.95;;;;;;;17.94;91.97;99562.59;5111616;28;20035;-61
2022/10/24 03:06:02;;;;;;;8.23;2.72;;;;;;;17.96;92.24;99566.03;5112188;28;20016;-61
2022/10/24 03:08:28;;;;;;;9.25;1.83;;;;;;;17.98;92.39;99574.88;5112232;28;20030;-61
2022/10/24 03:10:54;;;;;;;6.35;1.88;;;;;;;17.99;93.02;99581.97;5111753;28;20019;-60
2022/10/24 03:13:20;;;;;;;5.22;1.98;;;;;;;17.97;93.39;99578.53;5111849;28;20103;-60
2022/10/24 03:15:45;;;;;;;7.47;2.25;;;;;;;18.01;92.88;99577.34;5111967;28;20028;-60
2022/10/24 03:18:10;;;;;;;6.38;2.30;;;;;;;18.04;93.64;99581.66;5111757;28;20071;-60
2022/10/24 03:20:36;;;;;;;8.85;1.65;;;;;;;18.04;93.47;99576.25;5112174;28;20052;-60
2022/10/24 03:23:01;;;;;;;7.93;1.83;;;;;;;17.96;93.91;99560.66;5111763;28;20084;-61
2022/10/24 03:25:27;;;;;;;7.57;1.92;;;;;;;17.99;94.83;99579.28;5111887;28;20036;-62
2022/10/24 03:27:52;;;;;;;14.32;2.47;;;;;;;17.97;94.55;99570.44;5112015;28;20779;-59
2022/10/24 03:30:18;;;;;;;7.22;2.85;;;;;;;17.96;95.20;99566.03;5112003;28;20028;-60
2022/10/24 03:32:43;;;;;;;18.00;2.22;;;;;;;17.95;95.43;99564.34;5111949;28;20542;-60
2022/10/24 03:35:09;;;;;;;6.47;2.17;;;;;;;17.94;95.07;99565.28;5111769;28;20019;-60
2022/10/24 03:37:35;;;;;;;12.65;1.92;;;;;;;17.99;94.86;99571.22;5111541;28;20027;-60
2022/10/24 03:40:00;;;;;;;13.48;2.35;;;;;;;18.02;94.64;99570.16;5111403;28;20031;-61
2022/10/24 03:42:26;;;;;;;14.32;4.78;;;;;;;18.04;94.61;99569.06;5111631;28;20884;-60
2022/10/24 03:44:51;;;;;;;14.13;2.38;;;;;;;18.07;93.60;99574.22;5111756;28;20019;-60
2022/10/24 03:47:17;;;;;;;11.20;2.15;;;;;;;18.09;93.45;99572.28;5111034;28;20106;-60
2022/10/24 03:49:42;;;;;;;8.52;2.47;;;;;;;18.12;93.79;99579.31;5111419;28;20034;-60
2022/10/24 03:52:08;;;;;;;7.88;3.92;;;;;;;18.09;94.08;99577.69;5111666;28;20103;-60
2022/10/24 03:54:34;;;;;;;5.63;1.42;;;;;;;18.11;94.21;99581.13;5111482;28;20085;-60
2022/10/24 03:57:00;;;;;;;9.77;2.15;;;;;;;18.08;94.91;99586.72;5111064;28;20052;-60
2022/10/24 03:59:26;;;;;;;9.52;2.30;;;;;;;18.07;94.76;99590.38;5093042;28;20047;-60
2022/10/24 04:01:51;;;;;;;9.90;2.22;;;;;;;18.13;94.81;99587.28;5111661;28;20092;-60
2022/10/24 04:04:16;;;;;;;8.48;2.22;;;;;;;18.15;94.90;99597.94;5111436;28;20521;-60
2022/10/24 04:06:42;;;;;;;9.68;2.90;;;;;;;18.16;95.07;99599.63;5107499;28;20016;-59
2022/10/24 04:09:07;;;;;;;9.15;1.73;;;;;;;18.16;95.20;99603.22;5090915;28;20036;-61
2022/10/24 04:11:33;;;;;;;12.05;2.33;;;;;;;18.16;95.16;99608.59;5091017;28;20028;-60
2022/10/24 04:13:59;;;;;;;10.75;1.90;;;;;;;18.17;95.67;99606.78;5090924;28;20521;-60
2022/10/24 04:16:25;;;;;;;13.57;3.67;;;;;;;18.19;95.47;99599.41;5091042;28;20032;-60
2022/10/24 04:18:51;;;;;;;15.27;3.22;;;;;;;18.22;95.65;99600.06;5103759;28;20035;-60
2022/10/24 04:21:17;;;;;;;10.48;2.55;;;;;;;18.27;95.47;99603.31;5111450;28;20038;-60
2022/10/24 04:23:43;;;;;;;8.60;2.30;;;;;;;18.31;96.00;99594.06;5110900;28;20047;-61
2022/10/24 04:26:14;;;;;;;13.43;3.47;;;;;;;18.34;95.47;99583.06;5111364;28;20093;-61
2022/10/24 04:28:40;;;;;;;10.18;3.25;;;;;;;18.43;93.79;99604.94;5109738;28;20066;-60
2022/10/24 04:31:05;;;;;;;15.65;2.10;;;;;;;18.58;93.38;99606.56;5111424;28;20382;-60
2022/10/24 04:33:31;;;;;;;8.70;2.33;;;;;;;18.63;93.53;99615.16;5111215;28;20490;-60
2022/10/24 04:35:56;;;;;;;8.70;2.00;;;;;;;18.69;91.99;99620.97;5111165;28;20031;-60
2022/10/24 04:38:22;;;;;;;11.35;2.80;;;;;;;18.74;92.29;99608.03;5110951;28;20028;-60
2022/10/24 04:40:49;;;;;;;10.27;2.95;;;;;;;18.78;92.01;99616.78;5111051;28;20120;-59
2022/10/24 04:43:15;;;;;;;8.63;2.70;;;;;;;18.71;92.18;99610.97;5111209;28;20382;-60
2022/10/24 04:45:40;;;;;;;6.22;2.22;;;;;;;18.81;90.60;99603.06;5111096;28;20024;-60
2022/10/24 04:48:06;;;;;;;7.00;2.13;;;;;;;19.02;89.35;99605.06;5110964;28;20019;-60
2022/10/24 04:50:31;;;;;;;6.68;1.63;;;;;;;19.19;87.83;99620.84;5110620;28;20539;-59
2022/10/24 04:52:57;;;;;;;5.95;1.35;;;;;;;19.39;86.38;99622.94;5110736;28;20470;-61
2022/10/24 04:55:22;;;;;;;7.93;2.72;;;;;;;19.52;85.15;99639.09;5110857;28;20813;-60
2022/10/24 04:57:47;;;;;;;10.55;2.20;;;;;;;19.53;85.59;99659.69;5110896;28;20051;-60
2022/10/24 05:00:13;;;;;;;5.40;1.80;;;;;;;19.56;85.81;99663.03;5112727;28;20023;-61
2022/10/24 05:02:39;;;;;;;7.78;1.67;;;;;;;19.55;85.92;99676.63;5114868;28;20051;-60
2022/10/24 05:05:05;;;;;;;8.80;1.77;;;;;;;19.56;87.35;99640.56;5114446;28;20126;-59
2022/10/24 05:07:31;;;;;;;9.90;2.95;;;;;;;19.60;90.20;99642.06;5114347;28;20042;-61
2022/10/24 05:09:56;;;;;;;33.20;13.63;;;;;;;19.41;92.66;99653.38;5114108;28;20031;-60
2022/10/24 05:12:21;;;;;;;6.95;2.88;;;;;;;19.25;94.69;99651.88;5114143;28;20022;-60
2022/10/24 05:14:47;;;;;;;11.15;2.22;;;;;;;19.15;96.61;99656.22;5114516;28;20027;-60
2022/10/24 05:17:13;;;;;;;23.48;9.85;;;;;;;19.00;98.83;99655.53;5114582;28;20032;-60
2022/10/24 05:19:39;;;;;;;16.15;5.03;;;;;;;18.85;99.36;99663.84;5113938;28;20107;-60
2022/10/24 05:22:04;;;;;;;14.45;6.68;;;;;;;18.80;100.00;99656.09;5114119;28;20110;-61
2022/10/24 05:24:29;;;;;;;10.50;4.22;;;;;;;18.74;100.00;99650.28;5114150;28;20402;-61
2022/10/24 05:26:55;;;;;;;9.95;2.28;;;;;;;18.62;100.00;99645.75;5114246;28;20024;-60
2022/10/24 05:29:20;;;;;;;6.38;2.50;;;;;;;18.52;100.00;99655.50;5114237;28;20027;-60
2022/10/24 05:31:46;;;;;;;5.50;1.65;;;;;;;18.41;100.00;99647.28;5114039;28;20098;-60
2022/10/24 05:34:11;;;;;;;13.07;2.83;;;;;;;18.43;100.00;99651.59;5114135;28;20023;-60
2022/10/24 05:36:37;;;;;;;7.90;1.75;;;;;;;18.44;100.00;99652.44;5114014;28;20019;-60
2022/10/24 05:39:02;;;;;;;6.53;1.40;;;;;;;18.31;100.00;99647.91;5113893;28;20096;-60
2022/10/24 05:41:28;;;;;;;4.20;1.35;;;;;;;18.30;100.00;99639.94;5113927;28;20055;-61
2022/10/24 05:43:53;;;;;;;9.40;1.80;;;;;;;18.24;100.00;99629.56;5113902;28;20023;-60
2022/10/24 05:46:19;;;;;;;4.95;1.73;;;;;;;18.20;100.00;99636.16;5113478;28;20032;-60
2022/10/24 05:48:44;;;;;;;5.78;1.88;;;;;;;18.18;100.00;99660.50;5113736;28;20015;-60
2022/10/24 05:51:10;;;;;;;6.22;2.20;;;;;;;18.12;100.00;99647.44;5113719;28;20035;-60
2022/10/24 05:53:35;;;;;;;9.13;2.85;;;;;;;18.16;100.00;99658.88;5113363;28;20020;-60
2022/10/24 05:56:01;;;;;;;7.30;2.95;;;;;;;18.12;100.00;99689.69;5113629;28;20088;-60
2022/10/24 05:58:26;;;;;;;8.63;1.50;;;;;;;18.10;100.00;99705.91;5113635;28;20015;-60
2022/10/24 06:00:52;;;;;;;3.70;1.50;;;;;;;18.12;100.00;99689.69;5113480;28;20028;-60
2022/10/24 06:03:17;;;;;;;5.75;1.40;;;;;;;18.10;100.00;99665.53;5113375;28;20053;-60
2022/10/24 06:05:43;;;;;;;4.20;1.52;;;;;;;18.13;100.00;99662.66;5113455;28;20028;-60
2022/10/24 06:08:09;;;;;;;5.30;2.25;;;;;;;18.23;100.00;99685.28;5113473;28;20034;-59
2022/10/24 06:10:35;;;;;;;9.48;2.45;;;;;;;18.28;100.00;99675.06;5113207;28;20035;-60
2022/10/24 06:13:01;;;;;;;8.45;2.67;;;;;;;18.30;100.00;99689.25;5113398;28;20042;-60
2022/10/24 06:15:26;;;;;;;9.40;2.83;;;;;;;18.30;100.00;99700.03;5113188;28;20439;-60
2022/10/24 06:17:52;;;;;;;3.65;2.20;;;;;;;18.25;100.00;99712.94;5094604;28;20032;-60
2022/10/24 06:20:18;;;;;;;4.88;1.85;;;;;;;18.20;100.00;99719.63;5112881;28;20020;-60
2022/10/24 06:22:46;;;;;;;4.93;2.03;;;;;;;18.16;100.00;99724.34;5113155;28;20020;-60
2022/10/24 06:25:12;;;;;;;4.30;1.50;;;;;;;18.12;100.00;99720.13;5113090;28;20106;-59
2022/10/24 06:27:39;;;;;;;4.18;1.70;;;;;;;18.09;100.00;99723.03;5113084;28;20032;-59
2022/10/24 06:30:05;;;;;;;5.18;1.50;;;;;;;18.08;100.00;99694.41;5112673;28;20020;-60
2022/10/24 06:32:31;;;;;;;8.20;1.85;;;;;;;18.05;100.00;99707.19;5113038;28;20390;-59
2022/10/24 06:34:56;;;;;;;6.78;2.55;;;;;;;18.00;100.00;99720.09;5112990;28;20028;-59
2022/10/24 06:37:22;;;;;;;5.82;1.55;;;;;;;18.02;100.00;99728.94;5112325;28;20471;-60
2022/10/24 06:39:47;;;;;;;3.88;1.52;;;;;;;18.04;100.00;99722.47;5112364;28;20100;-60
2022/10/24 06:42:13;;;;;;;5.55;1.60;;;;;;;18.01;100.00;99693.09;5111941;28;20054;-60
2022/10/24 06:44:38;;;;;;;4.10;1.50;;;;;;;17.99;100.00;99678.03;5109794;28;20088;-60
2022/10/24 06:47:05;;;;;;;5.10;1.67;;;;;;;18.02;100.00;99700.19;5111417;28;20451;-60
2022/10/24 06:49:30;;;;;;;3.40;1.77;;;;;;;18.05;100.00;99694.63;5111594;28;20038;-60
2022/10/24 06:51:56;;;;;;;8.25;2.42;;;;;;;18.06;100.00;99707.09;5111120;28;20035;-59
2022/10/24 06:54:21;;;;;;;3.30;1.77;;;;;;;18.06;100.00;99693.63;5111479;28;20027;-60
2022/10/24 06:56:47;;;;;;;6.10;1.70;;;;;;;18.09;100.00;99701.50;5112085;28;20043;-60
2022/10/24 06:59:17;;;;;;;9.38;1.50;;;;;;;18.08;100.00;99710.56;5112478;28;20028;-60
2022/10/24 07:01:43;;;;;;;3.50;1.35;;;;;;;18.09;100.00;99722.16;5101805;28;20035;-60
2022/10/24 07:04:08;;;;;;;6.20;1.70;;;;;;;18.08;100.00;99740.16;5104185;28;20388;-60
2022/10/24 07:06:34;;;;;;;6.13;1.60;;;;;;;18.06;100.00;99735.84;5111996;28;20035;-59
2022/10/24 07:09:01;;;;;;;8.93;1.90;;;;;;;18.05;100.00;99728.72;5111953;28;20024;-60
2022/10/24 07:11:27;;;;;;;4.90;1.98;;;;;;;18.03;100.00;99734.22;5109064;28;20028;-60
2022/10/24 07:13:53;;;;;;;7.20;2.45;;;;;;;18.02;100.00;99731.63;5112171;28;20038;-60
2022/10/24 07:16:19;;;;;;;5.68;1.65;;;;;;;18.01;100.00;99733.47;5111762;28;20023;-60
2022/10/24 07:18:45;;;;;;;6.88;2.10;;;;;;;18.03;100.00;99731.53;5111722;28;20055;-61
2022/10/24 07:21:14;;;;;;;9.65;3.40;;;;;;;18.04;100.00;99729.69;5105728;28;20032;-59
2022/10/24 07:23:40;;;;;;;9.65;4.47;;;;;;;18.03;100.00;99736.91;5090971;28;20089;-60
2022/10/24 07:26:08;;;;;;;6.45;2.53;;;;;;;18.04;100.00;99735.94;5110501;28;20019;-60
2022/10/24 07:28:36;;;;;;;7.60;3.13;;;;;;;18.06;100.00;99733.16;5097659;28;20424;-61
2022/10/24 07:31:02;;;;;;;8.73;3.22;;;;;;;18.14;100.00;99742.44;5100787;28;20504;-60
2022/10/24 07:33:28;;;;;;;15.23;7.68;;;;;;;18.18;100.00;99727.81;5101088;28;20032;-61
2022/10/24 07:35:54;;;;;;;14.40;4.85;;;;;;;18.22;100.00;99742.78;5100364;28;20081;-60
2022/10/24 07:38:20;;;;;;;13.93;8.65;;;;;;;18.26;100.00;99741.59;5100025;28;20024;-59
2022/10/24 07:40:46;;;;;;;11.55;6.45;;;;;;;18.30;100.00;99753.88;5098261;28;20394;-59
2022/10/24 07:43:13;;;;;;;21.00;14.23;;;;;;;18.35;100.00;99740.97;5103484;28;20031;-60
2022/10/24 07:45:39;;;;;;;11.73;7.03;;;;;;;18.43;100.00;99739.63;5100051;28;20108;-59
2022/10/24 07:48:05;;;;;;;7.38;3.55;;;;;;;18.47;100.00;99733.91;5093708;28;20116;-60
2022/10/24 07:50:32;;;;;;;7.63;3.65;;;;;;;18.51;100.00;99742.63;5100603;28;20044;-60
2022/10/24 07:52:58;;;;;;;15.75;6.88;;;;;;;18.58;100.00;99742.13;5094757;28;20051;-60
2022/10/24 07:55:23;;;;;;;11.63;4.75;;;;;;;18.64;100.00;99732.72;5093107;28;20136;-60
2022/10/24 07:57:48;;;;;;;7.63;2.70;;;;;;;18.71;100.00;99731.34;5100176;28;20046;-60
2022/10/24 08:00:14;;;;;;;9.65;2.65;;;;;;;18.77;100.00;99736.28;5097869;28;20032;-60
2022/10/24 08:02:40;;;;;;;6.93;1.67;;;;;;;18.77;100.00;99720.13;5098218;28;20469;-60
2022/10/24 08:05:06;;;;;;;6.70;2.50;;;;;;;18.77;100.00;99722.81;5096452;28;20493;-60
2022/10/24 08:07:34;;;;;;;7.32;2.92;;;;;;;18.75;100.00;99725.63;5106703;28;20035;-60
2022/10/24 08:10:00;;;;;;;5.68;2.25;;;;;;;18.75;100.00;99727.44;5097982;28;20430;-60
2022/10/24 08:12:26;;;;;;;3.58;1.83;;;;;;;18.73;100.00;99729.41;5109413;28;20035;-60
2022/10/24 08:14:52;;;;;;;5.95;2.00;;;;;;;18.71;100.00;99732.22;5105991;28;20367;-61
2022/10/24 08:17:18;;;;;;;4.28;1.30;;;;;;;18.71;100.00;99740.28;5103593;28;20030;-60
2022/10/24 08:19:44;;;;;;;4.80;1.40;;;;;;;18.76;100.00;99742.66;5109369;28;20030;-60
2022/10/24 08:22:10;;;;;;;5.20;1.92;;;;;;;18.77;100.00;99736.28;5090731;28;20107;-60
2022/10/24 08:24:35;;;;;;;9.77;2.20;;;;;;;18.77;100.00;99744.38;5090766;28;20074;-60
2022/10/24 08:27:00;;;;;;;8.02;2.10;;;;;;;18.77;100.00;99738.97;5097537;28;20031;-60
2022/10/24 08:29:26;;;;;;;7.95;2.40;;;;;;;18.77;100.00;99736.28;5097092;28;20028;-61
2022/10/24 08:31:54;;;;;;;6.03;2.40;;;;;;;18.80;100.00;99736.06;5098477;28;20601;-60
2022/10/24 08:34:20;;;;;;;4.93;2.40;;;;;;;18.84;100.00;99729.50;5096827;28;20034;-60
2022/10/24 08:36:47;;;;;;;5.28;2.05;;;;;;;18.88;100.00;99725.63;5101572;28;20023;-60
2022/10/24 08:39:13;;;;;;;6.07;2.83;;;;;;;18.91;100.00;99728.94;5112124;28;20043;-60
2022/10/24 08:41:45;;;;;;;6.97;2.78;;;;;;;18.98;100.00;99735.63;5098624;28;20039;-60
2022/10/24 08:44:31;;;;;;;8.63;2.33;;;;;;;18.96;100.00;99731.34;5095263;28;20063;-60
2022/10/24 08:47:15;;;;;;;5.35;2.47;;;;;;;18.99;100.00;99725.72;5102372;28;20126;-60
2022/10/24 08:50:05;;;;;;;10.98;2.45;;;;;;;19.03;100.00;99722.69;5099171;28;20514;-60
2022/10/24 08:52:40;;;;;;;9.82;2.05;;;;;;;19.09;100.00;99721.41;5100243;28;20023;-60
2022/10/24 08:55:17;;;;;;;5.97;2.58;;;;;;;19.17;100.00;99724.41;5096020;28;20104;-60
2022/10/24 08:57:48;;;;;;;7.13;2.78;;;;;;;19.23;100.00;99732.03;5104494;28;20052;-60
2022/10/24 09:00:28;;;;;;;10.20;2.83;;;;;;;19.31;100.00;99733.25;5097926;28;20060;-60
2022/10/24 09:03:10;;;;;;;5.65;2.25;;;;;;;19.34;100.00;99732.19;5100533;28;20051;-60
2022/10/24 09:05:47;;;;;;;4.13;1.77;;;;;;;19.34;100.00;99732.19;5106660;28;20019;-60
2022/10/24 09:08:31;;;;;;;7.57;2.47;;;;;;;19.43;100.00;99731.50;5104765;28;20023;-61
2022/10/24 09:10:59;;;;;;;11.15;2.67;;;;;;;19.49;100.00;99739.13;5102734;28;20028;-60
2022/10/24 09:13:26;;;;;;;8.10;3.20;;;;;;;19.54;100.00;99750.44;5106565;28;20110;-61
2022/10/24 09:15:52;;;;;;;7.10;2.35;;;;;;;19.52;98.99;99742.47;5097748;28;20034;-60
2022/10/24 09:18:22;;;;;;;6.85;2.33;;;;;;;19.55;97.77;99746.78;5098322;28;20387;-61
2022/10/24 09:20:50;;;;;;;8.52;2.78;;;;;;;19.61;98.20;99751.72;5102878;28;20019;-61
2022/10/24 09:23:17;;;;;;;7.88;2.28;;;;;;;19.61;98.01;99749.03;5096528;28;20142;-60
2022/10/24 09:25:53;;;;;;;8.30;2.10;;;;;;;19.65;97.97;99755.94;5111110;28;20027;-60
2022/10/24 09:28:19;;;;;;;7.75;4.25;;;;;;;19.63;96.87;99750.66;5093885;28;20093;-61
2022/10/24 09:30:46;;;;;;;13.73;2.80;;;;;;;19.70;97.33;99761.84;5104818;28;20522;-60
2022/10/24 09:33:20;;;;;;;7.75;2.70;;;;;;;19.75;97.24;99759.69;5097895;28;20028;-60
2022/10/24 09:35:47;;;;;;;6.10;2.15;;;;;;;19.86;97.23;99759.72;5100654;28;20015;-61
2022/10/24 09:38:32;;;;;;;6.82;3.42;;;;;;;19.83;96.20;99746.47;5094433;28;20040;-60
2022/10/24 09:41:04;;;;;;;7.93;2.35;;;;;;;19.93;95.42;99749.34;5095907;28;20059;-60
2022/10/24 09:43:34;;;;;;;8.43;2.65;;;;;;;19.98;94.58;99752.56;5099069;28;20032;-60
2022/10/24 09:46:05;;;;;;;8.02;1.73;;;;;;;20.01;94.44;99761.28;5095582;28;20385;-60
2022/10/24 09:48:41;;;;;;;8.18;3.08;;;;;;;20.08;94.51;99762.53;5096866;28;20473;-60
2022/10/24 09:51:07;;;;;;;5.35;2.00;;;;;;;20.14;94.58;99767.50;5097432;28;20027;-61
2022/10/24 09:53:39;;;;;;;10.35;3.05;;;;;;;20.19;94.13;99770.75;5093981;28;20546;-61
2022/10/24 09:56:14;;;;;;;8.20;3.10;;;;;;;20.27;94.97;99767.44;5099321;28;20048;-60
2022/10/24 09:58:40;;;;;;;7.78;3.72;;;;;;;20.29;94.29;99769.06;5093421;28;20035;-60
2022/10/24 10:01:14;;;;;;;7.03;3.60;;;;;;;20.33;93.75;99778.66;5099203;28;20620;-60
2022/10/24 10:03:40;;;;;;;11.18;3.30;;;;;;;20.37;93.02;99787.38;5096312;28;20071;-61
2022/10/24 10:06:17;;;;;;;3.33;1.73;;;;;;;20.33;92.22;99784.03;5094676;28;20040;-60
2022/10/24 10:08:50;;;;;;;5.68;3.20;;;;;;;20.38;92.40;99789.97;5098461;28;20479;-60
2022/10/24 10:11:25;;;;;;;3.20;2.07;;;;;;;20.45;91.97;99783.13;5096767;28;20463;-61
2022/10/24 10:13:53;;;;;;;4.05;1.70;;;;;;;20.49;91.27;99787.28;5094934;28;20046;-60
2022/10/24 10:16:29;;;;;;;10.13;1.92;;;;;;;20.60;89.99;99800.88;5098604;28;20030;-61
2022/10/24 10:19:02;;;;;;;3.47;1.65;;;;;;;20.83;89.71;99794.53;5094276;28;20036;-60
2022/10/24 10:21:59;;;;;;;6.80;1.85;;;;;;;21.00;88.19;99800.50;5094936;28;20024;-60
2022/10/24 10:24:38;;;;;;;4.55;2.00;;;;;;;21.08;86.90;99808.88;5096753;28;20368;-60
2022/10/24 10:27:30;;;;;;;6.32;1.42;;;;;;;21.28;85.93;99819.84;5093208;28;20078;-60
2022/10/24 10:30:15;;;;;;;3.70;1.08;;;;;;;21.62;84.25;99826.97;5095825;28;20028;-61
2022/10/24 10:33:26;;;;;;;4.78;2.10;;;;;;;21.89;81.15;99834.75;5097933;28;20042;-61
2022/10/24 10:36:07;;;;;;;4.82;1.23;;;;;;;22.14;81.08;99840.72;5083602;28;20036;-60
2022/10/24 10:38:48;;;;;;;5.53;1.25;;;;;;;22.14;79.47;99834.47;5096106;28;20028;-61
2022/10/24 10:41:29;;;;;;;8.15;1.75;;;;;;;22.14;80.42;99834.47;5094536;28;20051;-60
2022/10/24 10:44:09;;;;;;;5.60;1.67;;;;;;;22.09;79.57;99851.06;5095806;28;20032;-60
2022/10/24 10:47:06;;;;;;;5.45;1.90;;;;;;;21.87;80.43;99851.13;5093472;28;20031;-60
2022/10/24 10:49:40;;;;;;;6.43;1.55;;;;;;;21.80;80.38;99847.19;5096328;28;20472;-60
2022/10/24 10:52:21;;;;;;;5.22;2.03;;;;;;;21.94;79.96;99856.91;5095039;28;20479;-60
2022/10/24 10:55:19;;;;;;;3.90;1.60;;;;;;;22.01;79.62;99855.38;5094074;28;20042;-60
2022/10/24 10:58:07;;;;;;;4.65;1.65;;;;;;;22.11;77.66;99850.94;5039837;28;20042;-60
2022/10/24 11:00:50;;;;;;;4.65;1.52;;;;;;;22.08;78.68;99845.78;5092729;28;20040;-60
2022/10/24 11:03:32;;;;;;;6.67;2.13;;;;;;;22.17;78.01;99842.31;5093546;28;20023;-60
2022/10/24 11:06:17;;;;;;;5.93;1.83;;;;;;;22.47;78.28;99841.63;5096823;28;20276;-60
2022/10/24 11:09:05;;;;;;;5.22;1.50;;;;;;;22.83;75.70;99843.94;5094529;28;20040;-61
2022/10/24 11:11:36;;;;;;;5.13;1.75;;;;;;;23.17;73.98;99835.47;5094560;28;20023;-61
2022/10/24 11:14:13;;;;;;;3.85;1.02;;;;;;;23.08;70.85;99846.28;5090546;28;20031;-61
2022/10/24 11:16:40;;;;;;;3.95;1.42;;;;;;;22.96;71.49;99845.50;5094206;28;20134;-60
2022/10/24 11:19:21;;;;;;;7.75;1.30;;;;;;;23.04;72.51;99837.53;5093489;28;20115;-61
2022/10/24 11:21:48;;;;;;;3.83;1.63;;;;;;;23.40;71.67;99844.34;5095056;28;20537;-61
2022/10/24 11:24:19;;;;;;;4.38;1.52;;;;;;;23.66;70.32;99842.91;5094039;28;20158;-61
2022/10/24 11:27:09;;;;;;;10.73;2.60;;;;;;;23.69;68.31;99839.06;5092514;28;20027;-60
2022/10/24 11:30:15;;;;;;;6.60;1.95;;;;;;;23.38;69.72;99835.47;5093459;28;20028;-60
2022/10/24 11:33:01;;;;;;;8.52;1.70;;;;;;;22.87;70.51;99830.00;5087809;28;20523;-60
2022/10/24 11:35:28;;;;;;;6.75;2.92;;;;;;;23.06;71.73;99830.09;5095499;28;20116;-60
2022/10/24 11:38:20;;;;;;;4.70;2.50;;;;;;;23.07;70.42;99826.41;5092393;28;20027;-60
2022/10/24 11:40:52;;;;;;;10.50;4.90;;;;;;;23.03;71.35;99808.66;5096684;28;20115;-60
2022/10/24 11:43:35;;;;;;;5.03;1.80;;;;;;;23.06;71.75;99819.25;5091655;28;20682;-60